sensor_id;sensor_type;location;lat;lon;timestamp;pressure;altitude;pressure_sealevel;temperature;humidity
41830;BME280;38614;43.472;23.936;2023-08-06T00:02:39;98897.41;;;20.71;nan
41830;BME280;38614;43.472;23.936;2023-08-06T00:05:27;98893.69;;;20.74;nan
41830;BME280;38614;43.472;23.936;2023-08-06T00:08:15;98906.41;;;20.66;nan
41830;BME280;38614;43.472;23.936;2023-08-06T00:11:03;98915.03;;;20.71;nan
41830;BME280;38614;43.472;23.936;2023-08-06T00:13:51;98927.66;;;20.67;nan
41830;BME280;38614;43.472;23.936;2023-08-06T00:16:38;98916.94;;;20.53;nan
41830;BME280;38614;43.472;23.936;2023-08-06T00:19:26;98932.28;;;20.61;nan
41830;BME280;38614;43.472;23.936;2023-08-06T00:22:14;98935.53;;;20.59;nan
41830;BME280;38614;43.472;23.936;2023-08-06T00:25:03;98937.34;;;20.53;nan
41830;BME280;38614;43.472;23.936;2023-08-06T00:27:51;98918.03;;;20.55;nan
41830;BME280;38614;43.472;23.936;2023-08-06T00:30:40;98907.94;;;20.58;nan
41830;BME280;38614;43.472;23.936;2023-08-06T00:33:27;98893.66;;;20.30;nan
41830;BME280;38614;43.472;23.936;2023-08-06T00:36:15;98907.78;;;20.39;nan
41830;BME280;38614;43.472;23.936;2023-08-06T00:39:03;98933.78;;;20.53;nan
41830;BME280;38614;43.472;23.936;2023-08-06T00:41:51;98922.34;;;20.47;nan
41830;BME280;38614;43.472;23.936;2023-08-06T00:44:41;98939.97;;;20.47;nan
41830;BME280;38614;43.472;23.936;2023-08-06T00:47:29;98953.44;;;20.40;nan
41830;BME280;38614;43.472;23.936;2023-08-06T00:50:18;98952.19;;;20.41;nan
41830;BME280;38614;43.472;23.936;2023-08-06T00:53:09;98948.63;;;20.40;nan
41830;BME280;38614;43.472;23.936;2023-08-06T00:55:58;98956.81;;;20.47;nan
41830;BME280;38614;43.472;23.936;2023-08-06T00:58:46;98961.88;;;20.40;nan
41830;BME280;38614;43.472;23.936;2023-08-06T01:01:34;98970.28;;;20.40;nan
41830;BME280;38614;43.472;23.936;2023-08-06T01:04:23;98948.63;;;20.40;nan
41830;BME280;38614;43.472;23.936;2023-08-06T01:10:25;98874.22;;;20.36;nan
41830;BME280;38614;43.472;23.936;2023-08-06T01:13:41;98907.53;;;20.46;nan
41830;BME280;38614;43.472;23.936;2023-08-06T01:16:30;98921.19;;;20.23;nan
41830;BME280;38614;43.472;23.936;2023-08-06T01:19:19;98897.63;;;19.85;nan
41830;BME280;38614;43.472;23.936;2023-08-06T01:22:07;98883.06;;;19.78;nan
41830;BME280;38614;43.472;23.936;2023-08-06T01:24:55;98873.56;;;19.75;nan
41830;BME280;38614;43.472;23.936;2023-08-06T01:27:49;98889.34;;;19.69;nan
41830;BME280;38614;43.472;23.936;2023-08-06T01:30:41;98881.97;;;19.62;nan
41830;BME280;38614;43.472;23.936;2023-08-06T01:33:32;98882.31;;;19.39;nan
41830;BME280;38614;43.472;23.936;2023-08-06T01:36:21;98893.94;;;19.50;nan
41830;BME280;38614;43.472;23.936;2023-08-06T01:39:09;98886.34;;;19.51;nan
41830;BME280;38614;43.472;23.936;2023-08-06T01:41:57;98885.31;;;19.45;nan
41830;BME280;38614;43.472;23.936;2023-08-06T01:44:45;98878.72;;;19.26;nan
41830;BME280;38614;43.472;23.936;2023-08-06T01:47:33;98843.34;;;19.19;nan
41830;BME280;38614;43.472;23.936;2023-08-06T01:50:21;98838.50;;;19.07;nan
41830;BME280;38614;43.472;23.936;2023-08-06T01:53:09;98865.97;;;19.12;nan
41830;BME280;38614;43.472;23.936;2023-08-06T01:55:57;98868.53;;;19.19;nan
41830;BME280;38614;43.472;23.936;2023-08-06T01:58:45;98868.41;;;19.23;nan
41830;BME280;38614;43.472;23.936;2023-08-06T02:01:32;98879.19;;;19.37;nan
41830;BME280;38614;43.472;23.936;2023-08-06T02:04:20;98884.09;;;19.33;nan
41830;BME280;38614;43.472;23.936;2023-08-06T02:07:08;98894.41;;;19.23;nan
41830;BME280;38614;43.472;23.936;2023-08-06T02:09:56;98863.03;;;19.16;nan
41830;BME280;38614;43.472;23.936;2023-08-06T02:12:44;98883.13;;;19.27;nan
41830;BME280;38614;43.472;23.936;2023-08-06T02:15:32;98885.56;;;19.12;nan
41830;BME280;38614;43.472;23.936;2023-08-06T02:18:20;98892.06;;;19.09;nan
41830;BME280;38614;43.472;23.936;2023-08-06T02:21:08;98893.41;;;19.04;nan
41830;BME280;38614;43.472;23.936;2023-08-06T02:23:56;98916.25;;;19.03;nan
41830;BME280;38614;43.472;23.936;2023-08-06T02:26:44;98913.31;;;18.94;nan
41830;BME280;38614;43.472;23.936;2023-08-06T02:29:32;98896.66;;;18.90;nan
41830;BME280;38614;43.472;23.936;2023-08-06T02:32:20;98890.16;;;19.06;nan
41830;BME280;38614;43.472;23.936;2023-08-06T02:35:08;98899.56;;;18.99;nan
41830;BME280;38614;43.472;23.936;2023-08-06T02:37:56;98887.47;;;18.90;nan
41830;BME280;38614;43.472;23.936;2023-08-06T02:40:47;98887.47;;;19.02;nan
41830;BME280;38614;43.472;23.936;2023-08-06T02:43:36;98900.81;;;19.11;nan
41830;BME280;38614;43.472;23.936;2023-08-06T02:46:24;98925.31;;;19.07;nan
41830;BME280;38614;43.472;23.936;2023-08-06T02:49:12;98922.09;;;19.08;nan
41830;BME280;38614;43.472;23.936;2023-08-06T02:52:00;98916.03;;;19.10;nan
41830;BME280;38614;43.472;23.936;2023-08-06T02:54:48;98923.84;;;19.02;nan
41830;BME280;38614;43.472;23.936;2023-08-06T02:57:36;98924.97;;;19.05;nan
41830;BME280;38614;43.472;23.936;2023-08-06T03:00:24;98923.28;;;18.95;nan
41830;BME280;38614;43.472;23.936;2023-08-06T03:03:12;98919.56;;;18.72;nan
41830;BME280;38614;43.472;23.936;2023-08-06T03:06:06;98928.53;;;18.80;nan
41830;BME280;38614;43.472;23.936;2023-08-06T03:09:02;98929.44;;;18.90;nan
41830;BME280;38614;43.472;23.936;2023-08-06T03:11:50;98941.41;;;18.61;nan
41830;BME280;38614;43.472;23.936;2023-08-06T03:14:39;98954.25;;;18.75;nan
41830;BME280;38614;43.472;23.936;2023-08-06T03:17:28;98962.78;;;18.84;nan
41830;BME280;38614;43.472;23.936;2023-08-06T03:20:16;98932.13;;;18.81;nan
41830;BME280;38614;43.472;23.936;2023-08-06T03:23:05;98926.28;;;18.88;nan
41830;BME280;38614;43.472;23.936;2023-08-06T03:25:53;98917.22;;;18.96;nan
41830;BME280;38614;43.472;23.936;2023-08-06T03:28:41;98902.13;;;18.81;nan
41830;BME280;38614;43.472;23.936;2023-08-06T03:31:30;98898.53;;;18.81;nan
41830;BME280;38614;43.472;23.936;2023-08-06T03:34:19;98907.72;;;18.81;nan
41830;BME280;38614;43.472;23.936;2023-08-06T03:37:09;98910.38;;;18.85;nan
41830;BME280;38614;43.472;23.936;2023-08-06T03:39:56;98906.22;;;18.76;nan
41830;BME280;38614;43.472;23.936;2023-08-06T03:42:44;98911.16;;;18.72;nan
41830;BME280;38614;43.472;23.936;2023-08-06T03:45:32;98954.06;;;18.82;nan
41830;BME280;38614;43.472;23.936;2023-08-06T03:48:20;98972.75;;;18.85;nan
41830;BME280;38614;43.472;23.936;2023-08-06T03:51:08;98989.53;;;18.85;nan
41830;BME280;38614;43.472;23.936;2023-08-06T03:53:58;98996.91;;;18.79;nan
41830;BME280;38614;43.472;23.936;2023-08-06T03:56:46;99015.28;;;18.80;nan
41830;BME280;38614;43.472;23.936;2023-08-06T03:59:36;99022.22;;;18.88;nan
41830;BME280;38614;43.472;23.936;2023-08-06T04:02:24;99016.94;;;18.77;nan
41830;BME280;38614;43.472;23.936;2023-08-06T04:05:13;98999.81;;;18.75;nan
41830;BME280;38614;43.472;23.936;2023-08-06T04:08:01;98962.91;;;18.81;nan
41830;BME280;38614;43.472;23.936;2023-08-06T04:10:52;98951.13;;;18.73;nan
41830;BME280;38614;43.472;23.936;2023-08-06T04:13:43;98965.19;;;18.69;nan
41830;BME280;38614;43.472;23.936;2023-08-06T04:16:31;98951.13;;;18.73;nan
41830;BME280;38614;43.472;23.936;2023-08-06T04:19:19;98894.94;;;18.51;nan
41830;BME280;38614;43.472;23.936;2023-08-06T04:22:07;98909.50;;;18.59;nan
41830;BME280;38614;43.472;23.936;2023-08-06T04:24:55;98946.78;;;18.56;nan
41830;BME280;38614;43.472;23.936;2023-08-06T04:27:43;98968.53;;;18.64;nan
41830;BME280;38614;43.472;23.936;2023-08-06T04:30:31;98973.00;;;18.62;nan
41830;BME280;38614;43.472;23.936;2023-08-06T04:33:20;98951.81;;;18.61;nan
41830;BME280;38614;43.472;23.936;2023-08-06T04:36:08;98938.91;;;18.50;nan
41830;BME280;38614;43.472;23.936;2023-08-06T04:38:56;98937.00;;;18.47;nan
41830;BME280;38614;43.472;23.936;2023-08-06T04:41:43;98879.50;;;18.46;nan
41830;BME280;38614;43.472;23.936;2023-08-06T04:44:32;98864.13;;;18.67;nan
41830;BME280;38614;43.472;23.936;2023-08-06T04:47:19;98878.16;;;18.80;nan
41830;BME280;38614;43.472;23.936;2023-08-06T04:50:08;98868.75;;;18.87;nan
41830;BME280;38614;43.472;23.936;2023-08-06T04:52:55;98873.69;;;18.83;nan
41830;BME280;38614;43.472;23.936;2023-08-06T04:55:44;98885.75;;;18.79;nan
41830;BME280;38614;43.472;23.936;2023-08-06T04:58:32;98882.47;;;18.68;nan
41830;BME280;38614;43.472;23.936;2023-08-06T05:01:20;98846.59;;;18.50;nan
41830;BME280;38614;43.472;23.936;2023-08-06T05:04:08;98866.84;;;18.71;nan
41830;BME280;38614;43.472;23.936;2023-08-06T05:06:56;98882.94;;;18.67;nan
41830;BME280;38614;43.472;23.936;2023-08-06T05:09:44;98869.47;;;18.62;nan
41830;BME280;38614;43.472;23.936;2023-08-06T05:12:32;98916.63;;;18.76;nan
41830;BME280;38614;43.472;23.936;2023-08-06T05:15:19;98925.81;;;18.76;nan
41830;BME280;38614;43.472;23.936;2023-08-06T05:18:08;98943.31;;;18.81;nan
41830;BME280;38614;43.472;23.936;2023-08-06T05:20:57;98964.09;;;18.79;nan
41830;BME280;38614;43.472;23.936;2023-08-06T05:23:48;98970.72;;;18.86;nan
41830;BME280;38614;43.472;23.936;2023-08-06T05:26:35;98989.06;;;18.74;nan
41830;BME280;38614;43.472;23.936;2023-08-06T05:29:25;98975.50;;;18.72;nan
41830;BME280;38614;43.472;23.936;2023-08-06T05:32:14;98957.38;;;18.77;nan
41830;BME280;38614;43.472;23.936;2023-08-06T05:35:04;98887.88;;;18.75;nan
41830;BME280;38614;43.472;23.936;2023-08-06T05:37:52;98862.03;;;18.71;nan
41830;BME280;38614;43.472;23.936;2023-08-06T05:40:40;98863.78;;;18.65;nan
41830;BME280;38614;43.472;23.936;2023-08-06T05:43:28;98933.56;;;18.85;nan
41830;BME280;38614;43.472;23.936;2023-08-06T05:46:16;98944.19;;;18.77;nan
41830;BME280;38614;43.472;23.936;2023-08-06T05:49:04;98946.44;;;18.83;nan
41830;BME280;38614;43.472;23.936;2023-08-06T05:51:52;98906.22;;;18.76;nan
41830;BME280;38614;43.472;23.936;2023-08-06T05:54:43;98940.72;;;18.86;nan
41830;BME280;38614;43.472;23.936;2023-08-06T05:57:31;98959.09;;;18.87;nan
41830;BME280;38614;43.472;23.936;2023-08-06T06:00:20;98947.41;;;18.76;nan
41830;BME280;38614;43.472;23.936;2023-08-06T06:03:08;98944.75;;;18.85;nan
41830;BME280;38614;43.472;23.936;2023-08-06T06:05:56;98945.91;;;19.00;nan
41830;BME280;38614;43.472;23.936;2023-08-06T06:08:45;98960.72;;;19.01;nan
41830;BME280;38614;43.472;23.936;2023-08-06T06:11:33;98961.25;;;18.96;nan
41830;BME280;38614;43.472;23.936;2023-08-06T06:14:21;98965.97;;;18.99;nan
41830;BME280;38614;43.472;23.936;2023-08-06T06:17:09;98986.22;;;19.03;nan
41830;BME280;38614;43.472;23.936;2023-08-06T06:19:56;98992.38;;;18.98;nan
41830;BME280;38614;43.472;23.936;2023-08-06T06:22:46;98981.72;;;18.93;nan
41830;BME280;38614;43.472;23.936;2023-08-06T06:25:34;98968.63;;;18.90;nan
41830;BME280;38614;43.472;23.936;2023-08-06T06:28:22;98963.91;;;18.87;nan
41830;BME280;38614;43.472;23.936;2023-08-06T06:31:10;98971.56;;;18.99;nan
41830;BME280;38614;43.472;23.936;2023-08-06T06:33:58;98974.59;;;19.04;nan
41830;BME280;38614;43.472;23.936;2023-08-06T06:36:46;98981.75;;;19.05;nan
41830;BME280;38614;43.472;23.936;2023-08-06T06:39:34;98951.94;;;18.86;nan
41830;BME280;38614;43.472;23.936;2023-08-06T06:42:24;98977.19;;;19.12;nan
41830;BME280;38614;43.472;23.936;2023-08-06T06:45:18;98974.25;;;19.15;nan
41830;BME280;38614;43.472;23.936;2023-08-06T06:48:06;98968.91;;;19.21;nan
41830;BME280;38614;43.472;23.936;2023-08-06T06:50:54;98956.56;;;19.05;nan
41830;BME280;38614;43.472;23.936;2023-08-06T06:53:45;98955.03;;;19.17;nan
41830;BME280;38614;43.472;23.936;2023-08-06T06:56:36;98955.94;;;19.27;nan
41830;BME280;38614;43.472;23.936;2023-08-06T06:59:24;98950.78;;;19.38;nan
41830;BME280;38614;43.472;23.936;2023-08-06T07:02:12;98960.88;;;19.48;nan
41830;BME280;38614;43.472;23.936;2023-08-06T07:05:00;98977.69;;;19.61;nan
41830;BME280;38614;43.472;23.936;2023-08-06T07:07:47;98991.03;;;19.70;nan
41830;BME280;38614;43.472;23.936;2023-08-06T07:10:35;98993.03;;;19.82;nan
41830;BME280;38614;43.472;23.936;2023-08-06T07:13:23;98978.69;;;19.80;nan
41830;BME280;38614;43.472;23.936;2023-08-06T07:16:11;98972.75;;;19.78;nan
41830;BME280;38614;43.472;23.936;2023-08-06T07:18:59;98966.81;;;19.76;nan
41830;BME280;38614;43.472;23.936;2023-08-06T07:21:47;98979.91;;;19.91;nan
41830;BME280;38614;43.472;23.936;2023-08-06T07:24:35;98993.59;;;19.89;nan
41830;BME280;38614;43.472;23.936;2023-08-06T07:27:24;99016.91;;;19.99;nan
41830;BME280;38614;43.472;23.936;2023-08-06T07:30:14;99014.88;;;20.00;nan
41830;BME280;38614;43.472;23.936;2023-08-06T07:33:02;99006.84;;;19.76;nan
41830;BME280;38614;43.472;23.936;2023-08-06T07:35:50;99035.66;;;19.77;nan
41830;BME280;38614;43.472;23.936;2023-08-06T07:38:38;99026.81;;;19.78;nan
41830;BME280;38614;43.472;23.936;2023-08-06T07:41:26;99024.66;;;19.57;nan
41830;BME280;38614;43.472;23.936;2023-08-06T07:44:15;99038.22;;;19.58;nan
41830;BME280;38614;43.472;23.936;2023-08-06T07:47:05;99031.38;;;19.59;nan
41830;BME280;38614;43.472;23.936;2023-08-06T07:49:56;99041.47;;;19.70;nan
41830;BME280;38614;43.472;23.936;2023-08-06T07:52:48;99034.09;;;19.76;nan
41830;BME280;38614;43.472;23.936;2023-08-06T07:58:52;99032.16;;;19.73;nan
41830;BME280;38614;43.472;23.936;2023-08-06T08:01:43;99021.88;;;19.70;nan
41830;BME280;38614;43.472;23.936;2023-08-06T08:04:33;99023.00;;;19.85;nan
41830;BME280;38614;43.472;23.936;2023-08-06T08:07:21;99020.97;;;19.85;nan
41830;BME280;38614;43.472;23.936;2023-08-06T08:10:12;99000.53;;;19.98;nan
41830;BME280;38614;43.472;23.936;2023-08-06T08:13:02;99009.78;;;20.33;nan
41830;BME280;38614;43.472;23.936;2023-08-06T08:15:50;99009.69;;;20.71;nan
41830;BME280;38614;43.472;23.936;2023-08-06T08:18:38;99004.50;;;21.04;nan
41830;BME280;38614;43.472;23.936;2023-08-06T08:21:26;99001.53;;;21.29;nan
41830;BME280;38614;43.472;23.936;2023-08-06T08:24:17;98975.59;;;21.97;nan
41830;BME280;38614;43.472;23.936;2023-08-06T08:27:07;98988.81;;;21.87;nan
41830;BME280;38614;43.472;23.936;2023-08-06T08:29:55;98978.38;;;21.87;nan
41830;BME280;38614;43.472;23.936;2023-08-06T08:32:44;98974.09;;;22.14;nan
41830;BME280;38614;43.472;23.936;2023-08-06T08:35:32;98933.47;;;22.33;nan
41830;BME280;38614;43.472;23.936;2023-08-06T08:38:20;98951.94;;;22.43;nan
41830;BME280;38614;43.472;23.936;2023-08-06T08:41:09;98947.88;;;22.63;nan
41830;BME280;38614;43.472;23.936;2023-08-06T08:43:58;98955.69;;;22.86;nan
41830;BME280;38614;43.472;23.936;2023-08-06T08:46:50;98955.34;;;22.75;nan
41830;BME280;38614;43.472;23.936;2023-08-06T08:49:38;98941.44;;;22.62;nan
41830;BME280;38614;43.472;23.936;2023-08-06T08:52:27;98948.78;;;22.32;nan
41830;BME280;38614;43.472;23.936;2023-08-06T08:55:21;98947.75;;;21.89;nan
41830;BME280;38614;43.472;23.936;2023-08-06T08:58:10;98964.63;;;21.89;nan
41830;BME280;38614;43.472;23.936;2023-08-06T09:00:58;98973.28;;;21.64;nan
41830;BME280;38614;43.472;23.936;2023-08-06T09:03:48;98963.19;;;21.36;nan
41830;BME280;38614;43.472;23.936;2023-08-06T09:06:49;98977.81;;;21.30;nan
41830;BME280;38614;43.472;23.936;2023-08-06T09:09:39;98970.69;;;21.39;nan
41830;BME280;38614;43.472;23.936;2023-08-06T09:12:34;98971.22;;;21.55;nan
41830;BME280;38614;43.472;23.936;2023-08-06T09:15:27;98959.78;;;21.41;nan
41830;BME280;38614;43.472;23.936;2023-08-06T09:18:28;98960.97;;;21.61;nan
41830;BME280;38614;43.472;23.936;2023-08-06T09:21:19;98953.19;;;21.75;nan
41830;BME280;38614;43.472;23.936;2023-08-06T09:24:11;98951.09;;;22.06;nan
41830;BME280;38614;43.472;23.936;2023-08-06T09:27:02;98961.25;;;22.13;nan
41830;BME280;38614;43.472;23.936;2023-08-06T09:29:51;98957.59;;;21.94;nan
41830;BME280;38614;43.472;23.936;2023-08-06T09:32:48;98954.19;;;21.99;nan
41830;BME280;38614;43.472;23.936;2023-08-06T09:35:38;98955.03;;;22.27;nan
41830;BME280;38614;43.472;23.936;2023-08-06T09:38:37;98954.41;;;22.51;nan
41830;BME280;38614;43.472;23.936;2023-08-06T09:41:26;98935.03;;;22.80;nan
41830;BME280;38614;43.472;23.936;2023-08-06T09:44:25;98953.91;;;23.07;nan
41830;BME280;38614;43.472;23.936;2023-08-06T09:47:15;98945.75;;;23.27;nan
41830;BME280;38614;43.472;23.936;2023-08-06T09:50:05;98938.22;;;23.24;nan
41830;BME280;38614;43.472;23.936;2023-08-06T09:52:56;98934.88;;;23.35;nan
41830;BME280;38614;43.472;23.936;2023-08-06T09:55:44;98934.69;;;23.81;nan
41830;BME280;38614;43.472;23.936;2023-08-06T09:58:33;98922.66;;;24.04;nan
41830;BME280;38614;43.472;23.936;2023-08-06T10:01:22;98947.88;;;23.84;nan
41830;BME280;38614;43.472;23.936;2023-08-06T10:04:11;98935.06;;;23.98;nan
41830;BME280;38614;43.472;23.936;2023-08-06T10:07:10;98941.00;;;24.00;nan
41830;BME280;38614;43.472;23.936;2023-08-06T10:10:02;98932.16;;;23.92;nan
41830;BME280;38614;43.472;23.936;2023-08-06T10:13:25;98915.38;;;24.36;nan
41830;BME280;38614;43.472;23.936;2023-08-06T10:16:13;98925.50;;;24.96;nan
41830;BME280;38614;43.472;23.936;2023-08-06T10:19:02;98932.56;;;25.66;nan
41830;BME280;38614;43.472;23.936;2023-08-06T10:25:02;98913.19;;;25.94;nan
41830;BME280;38614;43.472;23.936;2023-08-06T10:27:54;98912.72;;;25.30;nan
41830;BME280;38614;43.472;23.936;2023-08-06T10:30:44;98908.78;;;25.72;nan
41830;BME280;38614;43.472;23.936;2023-08-06T10:33:46;98907.94;;;25.86;nan
41830;BME280;38614;43.472;23.936;2023-08-06T10:36:34;98907.16;;;25.36;nan
41830;BME280;38614;43.472;23.936;2023-08-06T10:39:23;98915.16;;;25.52;nan
41830;BME280;38614;43.472;23.936;2023-08-06T10:42:22;98915.19;;;25.23;nan
41830;BME280;38614;43.472;23.936;2023-08-06T10:45:18;98905.47;;;26.14;nan
41830;BME280;38614;43.472;23.936;2023-08-06T10:48:06;98899.66;;;26.24;nan
41830;BME280;38614;43.472;23.936;2023-08-06T10:50:54;98899.66;;;25.68;nan
41830;BME280;38614;43.472;23.936;2023-08-06T10:53:44;98899.38;;;25.31;nan
41830;BME280;38614;43.472;23.936;2023-08-06T10:56:40;98901.41;;;25.30;nan
41830;BME280;38614;43.472;23.936;2023-08-06T10:59:29;98887.16;;;26.10;nan
41830;BME280;38614;43.472;23.936;2023-08-06T11:02:17;98893.66;;;26.36;nan
41830;BME280;38614;43.472;23.936;2023-08-06T11:05:06;98886.00;;;26.22;nan
41830;BME280;38614;43.472;23.936;2023-08-06T11:07:54;98891.53;;;25.91;nan
41830;BME280;38614;43.472;23.936;2023-08-06T11:10:42;98896.91;;;26.29;nan
41830;BME280;38614;43.472;23.936;2023-08-06T11:13:42;98892.66;;;26.39;nan
41830;BME280;38614;43.472;23.936;2023-08-06T11:16:30;98891.44;;;26.98;nan
41830;BME280;38614;43.472;23.936;2023-08-06T11:19:18;98901.38;;;26.82;nan
41830;BME280;38614;43.472;23.936;2023-08-06T11:22:08;98884.63;;;27.42;nan
41830;BME280;38614;43.472;23.936;2023-08-06T11:24:56;98871.84;;;27.20;nan
41830;BME280;38614;43.472;23.936;2023-08-06T11:27:47;98876.22;;;26.95;nan
41830;BME280;38614;43.472;23.936;2023-08-06T11:30:38;98859.22;;;27.21;nan
41830;BME280;38614;43.472;23.936;2023-08-06T11:33:26;98853.47;;;27.47;nan
41830;BME280;38614;43.472;23.936;2023-08-06T11:36:14;98850.16;;;27.60;nan
41830;BME280;38614;43.472;23.936;2023-08-06T11:39:03;98842.50;;;27.29;nan
41830;BME280;38614;43.472;23.936;2023-08-06T11:41:53;98851.47;;;26.90;nan
41830;BME280;38614;43.472;23.936;2023-08-06T11:44:42;98866.66;;;27.56;nan
41830;BME280;38614;43.472;23.936;2023-08-06T11:47:32;98875.44;;;27.21;nan
41830;BME280;38614;43.472;23.936;2023-08-06T11:50:27;98872.63;;;26.43;nan
41830;BME280;38614;43.472;23.936;2023-08-06T11:53:15;98873.13;;;26.67;nan
41830;BME280;38614;43.472;23.936;2023-08-06T11:56:03;98875.94;;;26.62;nan
41830;BME280;38614;43.472;23.936;2023-08-06T11:58:51;98856.53;;;26.55;nan
41830;BME280;38614;43.472;23.936;2023-08-06T12:01:39;98865.41;;;26.68;nan
41830;BME280;38614;43.472;23.936;2023-08-06T12:04:27;98854.03;;;26.62;nan
41830;BME280;38614;43.472;23.936;2023-08-06T12:07:16;98852.25;;;26.65;nan
41830;BME280;38614;43.472;23.936;2023-08-06T12:10:06;98858.72;;;26.97;nan
41830;BME280;38614;43.472;23.936;2023-08-06T12:12:55;98872.94;;;26.71;nan
41830;BME280;38614;43.472;23.936;2023-08-06T12:15:45;98866.41;;;26.39;nan
41830;BME280;38614;43.472;23.936;2023-08-06T12:18:33;98852.88;;;26.28;nan
41830;BME280;38614;43.472;23.936;2023-08-06T12:21:21;98854.31;;;26.18;nan
41830;BME280;38614;43.472;23.936;2023-08-06T12:24:09;98857.25;;;26.29;nan
41830;BME280;38614;43.472;23.936;2023-08-06T12:26:58;98846.22;;;26.31;nan
41830;BME280;38614;43.472;23.936;2023-08-06T12:29:48;98840.66;;;26.94;nan
41830;BME280;38614;43.472;23.936;2023-08-06T12:32:41;98846.22;;;27.09;nan
41830;BME280;38614;43.472;23.936;2023-08-06T12:35:29;98835.13;;;26.80;nan
41830;BME280;38614;43.472;23.936;2023-08-06T12:38:16;98842.81;;;26.48;nan
41830;BME280;38614;43.472;23.936;2023-08-06T12:41:04;98840.97;;;26.70;nan
41830;BME280;38614;43.472;23.936;2023-08-06T12:43:52;98836.22;;;26.36;nan
41830;BME280;38614;43.472;23.936;2023-08-06T12:46:40;98829.78;;;26.35;nan
41830;BME280;38614;43.472;23.936;2023-08-06T12:49:28;98832.53;;;27.08;nan
41830;BME280;38614;43.472;23.936;2023-08-06T12:52:20;98828.16;;;27.44;nan
41830;BME280;38614;43.472;23.936;2023-08-06T12:55:08;98827.97;;;28.01;nan
41830;BME280;38614;43.472;23.936;2023-08-06T12:57:56;98837.78;;;28.06;nan
41830;BME280;38614;43.472;23.936;2023-08-06T13:00:45;98842.56;;;27.40;nan
41830;BME280;38614;43.472;23.936;2023-08-06T13:03:33;98841.16;;;26.93;nan
41830;BME280;38614;43.472;23.936;2023-08-06T13:06:21;98849.94;;;26.95;nan
41830;BME280;38614;43.472;23.936;2023-08-06T13:09:09;98848.38;;;27.20;nan
41830;BME280;38614;43.472;23.936;2023-08-06T13:11:58;98850.50;;;27.31;nan
41830;BME280;38614;43.472;23.936;2023-08-06T13:14:49;98848.78;;;27.44;nan
41830;BME280;38614;43.472;23.936;2023-08-06T13:17:40;98833.25;;;27.34;nan
41830;BME280;38614;43.472;23.936;2023-08-06T13:20:30;98845.25;;;27.55;nan
41830;BME280;38614;43.472;23.936;2023-08-06T13:23:20;98841.31;;;27.84;nan
41830;BME280;38614;43.472;23.936;2023-08-06T13:26:08;98828.41;;;27.89;nan
41830;BME280;38614;43.472;23.936;2023-08-06T13:29:02;98835.56;;;27.73;nan
41830;BME280;38614;43.472;23.936;2023-08-06T13:31:51;98828.25;;;27.18;nan
41830;BME280;38614;43.472;23.936;2023-08-06T13:34:38;98839.44;;;27.33;nan
41830;BME280;38614;43.472;23.936;2023-08-06T13:37:30;98840.94;;;26.96;nan
41830;BME280;38614;43.472;23.936;2023-08-06T13:40:18;98835.03;;;26.68;nan
41830;BME280;38614;43.472;23.936;2023-08-06T13:43:06;98831.22;;;27.03;nan
41830;BME280;38614;43.472;23.936;2023-08-06T13:45:53;98833.72;;;27.27;nan
41830;BME280;38614;43.472;23.936;2023-08-06T13:48:46;98826.13;;;27.50;nan
41830;BME280;38614;43.472;23.936;2023-08-06T13:51:43;98825.78;;;27.74;nan
41830;BME280;38614;43.472;23.936;2023-08-06T13:54:31;98823.97;;;27.76;nan
41830;BME280;38614;43.472;23.936;2023-08-06T13:57:19;98825.16;;;28.18;nan
41830;BME280;38614;43.472;23.936;2023-08-06T14:00:07;98818.69;;;28.18;nan
41830;BME280;38614;43.472;23.936;2023-08-06T14:02:58;98817.38;;;28.02;nan
41830;BME280;38614;43.472;23.936;2023-08-06T14:05:46;98802.66;;;28.03;nan
41830;BME280;38614;43.472;23.936;2023-08-06T14:08:34;98814.84;;;28.21;nan
41830;BME280;38614;43.472;23.936;2023-08-06T14:11:22;98807.81;;;27.99;nan
41830;BME280;38614;43.472;23.936;2023-08-06T14:14:11;98809.91;;;28.04;nan
41830;BME280;38614;43.472;23.936;2023-08-06T14:16:59;98812.16;;;27.83;nan
41830;BME280;38614;43.472;23.936;2023-08-06T14:19:47;98809.63;;;28.08;nan
41830;BME280;38614;43.472;23.936;2023-08-06T14:22:35;98809.56;;;27.91;nan
41830;BME280;38614;43.472;23.936;2023-08-06T14:25:24;98825.09;;;27.53;nan
41830;BME280;38614;43.472;23.936;2023-08-06T14:28:12;98825.91;;;27.16;nan
41830;BME280;38614;43.472;23.936;2023-08-06T14:31:03;98827.72;;;27.62;nan
41830;BME280;38614;43.472;23.936;2023-08-06T14:33:51;98832.06;;;27.46;nan
41830;BME280;38614;43.472;23.936;2023-08-06T14:36:39;98831.53;;;27.48;nan
41830;BME280;38614;43.472;23.936;2023-08-06T14:39:27;98826.84;;;27.45;nan
41830;BME280;38614;43.472;23.936;2023-08-06T14:42:15;98822.59;;;27.23;nan
41830;BME280;38614;43.472;23.936;2023-08-06T14:45:03;98825.50;;;27.35;nan
41830;BME280;38614;43.472;23.936;2023-08-06T14:47:51;98819.94;;;27.09;nan
41830;BME280;38614;43.472;23.936;2023-08-06T14:50:39;98823.38;;;26.92;nan
41830;BME280;38614;43.472;23.936;2023-08-06T14:53:31;98821.06;;;26.91;nan
41830;BME280;38614;43.472;23.936;2023-08-06T14:56:19;98825.31;;;26.75;nan
41830;BME280;38614;43.472;23.936;2023-08-06T14:59:07;98822.13;;;26.67;nan
41830;BME280;38614;43.472;23.936;2023-08-06T15:01:54;98819.38;;;26.47;nan
41830;BME280;38614;43.472;23.936;2023-08-06T15:04:42;98826.09;;;26.50;nan
41830;BME280;38614;43.472;23.936;2023-08-06T15:07:30;98831.22;;;26.46;nan
41830;BME280;38614;43.472;23.936;2023-08-06T15:10:23;98836.47;;;26.58;nan
41830;BME280;38614;43.472;23.936;2023-08-06T15:13:14;98836.91;;;26.77;nan
41830;BME280;38614;43.472;23.936;2023-08-06T15:16:04;98829.25;;;27.15;nan
41830;BME280;38614;43.472;23.936;2023-08-06T15:18:52;98833.19;;;27.23;nan